Time;durP1;ratioP1;P1;durP2;ratioP2;P2;SDS_P1;SDS_P2;PMS_P1;PMS_P2;Temp;Humidity;BMP_temperature;BMP_pressure;BME280_temperature;BME280_humidity;BME280_pressure;Samples;Min_cycle;Max_cycle;Signal;HPM_P1;HPM_P2
2023/06/14 00:01:45;;;;;;;;;;;15.90;83.80;;;;;;20823259;28;20328;-72
2023/06/14 00:11:46;;;;;;;;;;;15.80;84.50;;;;;;20814615;28;20265;-72
2023/06/14 00:21:47;;;;;;;;;;;15.70;85.30;;;;;;20815045;28;19917;-72
2023/06/14 00:31:48;;;;;;;;;;;15.50;85.80;;;;;;20823488;28;20346;-72
2023/06/14 00:41:48;;;;;;;;;;;15.20;87.70;;;;;;20823182;28;20052;-72
2023/06/14 00:51:50;;;;;;;;;;;15.10;89.20;;;;;;20771017;28;19980;-72
2023/06/14 01:01:50;;;;;;;;;;;14.80;90.00;;;;;;20739646;28;19971;-74
2023/06/14 01:12:01;;;;;;;;;;;14.70;90.30;;;;;;20770814;28;20283;-74
2023/06/14 01:22:02;;;;;;;;;;;14.50;92.40;;;;;;20917452;28;19913;-72
2023/06/14 01:32:03;;;;;;;;;;;14.10;95.80;;;;;;20916495;28;20414;-72
2023/06/14 01:42:06;;;;;;;;;;;14.00;95.00;;;;;;20901956;28;20298;-72
2023/06/14 01:52:09;;;;;;;;;;;14.20;92.50;;;;;;20826539;28;19929;-72
2023/06/14 02:02:10;;;;;;;;;;;14.00;94.10;;;;;;20825450;28;20036;-72
2023/06/14 02:12:11;;;;;;;;;;;13.80;94.20;;;;;;20829892;28;20330;-72
2023/06/14 02:22:14;;;;;;;;;;;13.50;95.30;;;;;;20822033;28;19975;-72
2023/06/14 02:32:15;;;;;;;;;;;13.20;96.30;;;;;;20830067;28;20343;-72
2023/06/14 02:42:16;;;;;;;;;;;13.20;96.60;;;;;;20812616;28;19952;-72
2023/06/14 02:52:16;;;;;;;;;;;13.00;96.70;;;;;;20817331;28;20633;-72
2023/06/14 03:02:17;;;;;;;;;;;12.70;97.60;;;;;;20859214;22;19979;-75
2023/06/14 03:12:20;;;;;;;;;;;12.20;99.30;;;;;;20785634;28;21348;-76
2023/06/14 03:22:21;;;;;;;;;;;11.80;99.90;;;;;;20825624;28;20303;-75
2023/06/14 03:32:22;;;;;;;;;;;11.20;99.90;;;;;;20822540;28;20418;-75
2023/06/14 03:42:23;;;;;;;;;;;10.90;99.90;;;;;;20821598;28;19972;-75
2023/06/14 03:52:24;;;;;;;;;;;10.90;99.90;;;;;;20821114;28;19924;-75
2023/06/14 04:02:28;;;;;;;;;;;11.00;99.90;;;;;;20817302;28;20323;-75
2023/06/14 04:12:29;;;;;;;;;;;11.20;99.90;;;;;;20808801;28;19917;-76
2023/06/14 04:22:30;;;;;;;;;;;10.80;99.90;;;;;;20800166;28;19967;-75
2023/06/14 04:32:39;;;;;;;;;;;10.50;99.90;;;;;;20819348;28;19921;-76
2023/06/14 04:42:44;;;;;;;;;;;10.90;99.90;;;;;;20820544;28;19921;-75
2023/06/14 04:52:45;;;;;;;;;;;11.60;99.90;;;;;;20831484;28;19921;-76
2023/06/14 05:02:47;;;;;;;;;;;12.00;99.90;;;;;;20806373;28;19928;-76
2023/06/14 05:12:48;;;;;;;;;;;12.40;99.90;;;;;;20787715;28;19933;-75
2023/06/14 05:22:51;;;;;;;;;;;12.80;99.90;;;;;;20752675;28;19914;-75
2023/06/14 05:32:52;;;;;;;;;;;12.90;99.90;;;;;;20787528;28;20019;-75
2023/06/14 05:42:53;;;;;;;;;;;13.50;99.90;;;;;;20814118;28;20376;-75
2023/06/14 05:52:54;;;;;;;;;;;13.70;99.90;;;;;;20846054;28;19979;-75
2023/06/14 06:02:57;;;;;;;;;;;14.00;99.90;;;;;;20830314;28;20000;-76
2023/06/14 06:12:58;;;;;;;;;;;14.70;99.90;;;;;;20797737;28;19918;-75
2023/06/14 06:22:59;;;;;;;;;;;15.30;99.90;;;;;;20750827;28;19968;-75
2023/06/14 06:32:59;;;;;;;;;;;15.90;99.90;;;;;;20744675;28;20051;-76
2023/06/14 06:43:00;;;;;;;;;;;16.40;99.90;;;;;;20768130;28;19920;-76
2023/06/14 06:53:02;;;;;;;;;;;17.20;99.90;;;;;;20825448;28;19963;-75
2023/06/14 07:03:03;;;;;;;;;;;17.80;99.90;;;;;;20820186;28;19924;-75
2023/06/14 07:13:04;;;;;;;;;;;18.20;99.80;;;;;;20809133;28;19917;-75
2023/06/14 07:23:05;;;;;;;;;;;19.10;98.70;;;;;;20814984;28;20117;-75
2023/06/14 07:33:08;;;;;;;;;;;20.00;95.90;;;;;;20810000;28;19921;-75
2023/06/14 07:43:08;;;;;;;;;;;20.70;93.70;;;;;;20812761;28;19914;-74
2023/06/14 07:53:09;;;;;;;;;;;21.50;92.80;;;;;;20813949;28;19924;-75
2023/06/14 08:03:10;;;;;;;;;;;22.20;91.50;;;;;;20818063;28;19917;-75
2023/06/14 08:13:11;;;;;;;;;;;22.90;89.50;;;;;;20820071;28;19917;-75
2023/06/14 08:23:11;;;;;;;;;;;23.40;86.60;;;;;;20827207;28;20295;-75
2023/06/14 08:33:18;;;;;;;;;;;24.20;83.00;;;;;;20837821;28;20367;-74
2023/06/14 08:43:21;;;;;;;;;;;24.60;81.10;;;;;;20836924;28;20000;-75
2023/06/14 08:53:22;;;;;;;;;;;25.70;79.50;;;;;;20835852;28;19952;-75
2023/06/14 09:03:28;;;;;;;;;;;25.90;77.90;;;;;;20902226;22;19924;-73
2023/06/14 09:13:29;;;;;;;;;;;26.20;74.90;;;;;;20854607;28;19917;-73
2023/06/14 09:23:33;;;;;;;;;;;26.20;73.40;;;;;;20862038;28;19912;-72
2023/06/14 09:33:34;;;;;;;;;;;26.70;70.50;;;;;;20833228;28;19917;-73
2023/06/14 09:43:35;;;;;;;;;;;27.40;67.80;;;;;;20865814;28;19921;-72
2023/06/14 09:53:36;;;;;;;;;;;27.30;69.00;;;;;;20836991;28;20346;-73
2023/06/14 10:03:37;;;;;;;;;;;27.90;65.80;;;;;;20807423;28;19955;-73
2023/06/14 10:13:38;;;;;;;;;;;28.10;64.80;;;;;;20806829;28;19924;-74
2023/06/14 10:23:42;;;;;;;;;;;28.40;65.90;;;;;;20764638;28;19913;-74
2023/06/14 10:33:52;;;;;;;;;;;28.50;65.60;;;;;;20758285;28;19929;-74
2023/06/14 10:44:10;;;;;;;;;;;28.70;64.80;;;;;;20811047;28;19996;-74
2023/06/14 10:54:14;;;;;;;;;;;28.90;63.40;;;;;;20842249;28;19917;-74
2023/06/14 11:04:17;;;;;;;;;;;28.70;62.00;;;;;;20822319;28;20395;-74
2023/06/14 11:14:17;;;;;;;;;;;28.40;64.20;;;;;;20820593;28;20010;-73
2023/06/14 11:24:19;;;;;;;;;;;27.90;63.40;;;;;;20817953;28;19917;-74
2023/06/14 11:34:20;;;;;;;;;;;28.20;65.50;;;;;;20858463;28;19955;-74
2023/06/14 11:44:20;;;;;;;;;;;29.60;60.90;;;;;;20848947;28;19921;-74
2023/06/14 11:54:21;;;;;;;;;;;29.20;62.80;;;;;;20830488;28;20233;-73
2023/06/14 12:04:26;;;;;;;;;;;29.50;63.00;;;;;;20825762;28;19967;-74
2023/06/14 12:14:31;;;;;;;;;;;28.80;64.20;;;;;;20860927;28;19921;-73
2023/06/14 12:24:32;;;;;;;;;;;29.40;62.80;;;;;;20814770;28;19967;-74
2023/06/14 12:34:32;;;;;;;;;;;29.10;65.60;;;;;;20830317;28;19921;-75
2023/06/14 12:44:35;;;;;;;;;;;30.30;62.20;;;;;;20819451;28;20339;-74
2023/06/14 12:54:36;;;;;;;;;;;30.50;63.10;;;;;;20818563;28;20446;-74
2023/06/14 13:04:37;;;;;;;;;;;31.20;61.10;;;;;;20821577;28;19917;-74
2023/06/14 13:14:38;;;;;;;;;;;30.50;64.80;;;;;;20838954;28;19924;-75
2023/06/14 13:24:38;;;;;;;;;;;29.50;63.20;;;;;;20841032;28;19964;-74
2023/06/14 13:34:39;;;;;;;;;;;30.30;62.90;;;;;;20852598;28;19918;-73
2023/06/14 13:44:40;;;;;;;;;;;29.40;61.90;;;;;;20831504;28;20243;-73
2023/06/14 13:54:42;;;;;;;;;;;29.10;62.90;;;;;;20833562;28;19924;-74
2023/06/14 14:04:42;;;;;;;;;;;30.00;61.90;;;;;;20834055;28;20560;-75
2023/06/14 14:14:43;;;;;;;;;;;30.20;63.80;;;;;;20836712;28;19944;-74
2023/06/14 14:24:44;;;;;;;;;;;30.00;63.40;;;;;;20856198;28;20380;-74
2023/06/14 14:34:44;;;;;;;;;;;29.20;62.90;;;;;;20830109;28;19917;-75
2023/06/14 14:44:45;;;;;;;;;;;30.50;63.40;;;;;;20834523;28;19920;-74
2023/06/14 14:54:46;;;;;;;;;;;29.00;63.40;;;;;;20828227;28;20067;-74
2023/06/14 15:04:46;;;;;;;;;;;28.40;63.80;;;;;;20906737;23;19932;-73
2023/06/14 15:14:47;;;;;;;;;;;27.50;65.50;;;;;;20949967;28;19920;-73
2023/06/14 15:24:48;;;;;;;;;;;28.20;66.00;;;;;;20857936;28;19992;-73
2023/06/14 15:34:48;;;;;;;;;;;29.50;64.70;;;;;;20859917;28;19979;-75
2023/06/14 15:44:49;;;;;;;;;;;29.50;64.50;;;;;;20871676;28;19942;-74
2023/06/14 15:54:50;;;;;;;;;;;29.10;63.80;;;;;;20914494;28;20394;-73
2023/06/14 16:04:50;;;;;;;;;;;28.70;64.30;;;;;;20895377;28;19940;-73
2023/06/14 16:14:51;;;;;;;;;;;28.00;65.90;;;;;;20887928;28;19916;-74
2023/06/14 16:24:52;;;;;;;;;;;27.90;67.10;;;;;;20897211;28;19977;-75
2023/06/14 16:34:52;;;;;;;;;;;27.40;68.10;;;;;;20896956;28;20310;-75
2023/06/14 16:44:53;;;;;;;;;;;26.70;70.30;;;;;;20916187;28;19913;-74
2023/06/14 16:54:54;;;;;;;;;;;26.30;71.00;;;;;;20923248;28;20070;-74
2023/06/14 17:04:54;;;;;;;;;;;26.30;72.30;;;;;;20888704;28;19925;-74
2023/06/14 17:14:55;;;;;;;;;;;26.10;73.80;;;;;;20920391;28;20282;-73
2023/06/14 17:24:56;;;;;;;;;;;26.50;73.90;;;;;;20914438;28;20439;-74
2023/06/14 17:34:56;;;;;;;;;;;26.00;75.60;;;;;;20905766;28;19917;-74
2023/06/14 17:44:58;;;;;;;;;;;25.90;75.60;;;;;;20894189;28;20390;-74
2023/06/14 17:55:00;;;;;;;;;;;25.70;77.00;;;;;;20872184;28;20431;-74
2023/06/14 18:05:00;;;;;;;;;;;25.70;74.50;;;;;;20884742;28;20433;-74
2023/06/14 18:15:01;;;;;;;;;;;26.50;74.20;;;;;;20903558;28;19917;-73
2023/06/14 18:25:02;;;;;;;;;;;26.60;73.30;;;;;;20893134;28;20368;-74
2023/06/14 18:35:02;;;;;;;;;;;24.90;76.20;;;;;;20876816;28;19916;-74
2023/06/14 18:45:03;;;;;;;;;;;24.10;80.00;;;;;;20882122;28;19919;-73
2023/06/14 18:55:04;;;;;;;;;;;23.80;82.20;;;;;;20890491;28;19924;-73
2023/06/14 19:05:06;;;;;;;;;;;23.40;84.40;;;;;;20881597;28;20406;-73
2023/06/14 19:15:07;;;;;;;;;;;22.80;87.70;;;;;;20874478;28;20258;-74
2023/06/14 19:25:07;;;;;;;;;;;22.50;86.50;;;;;;20882352;28;19948;-74
2023/06/14 19:35:09;;;;;;;;;;;22.60;81.40;;;;;;20892154;28;20367;-74
2023/06/14 19:45:10;;;;;;;;;;;22.40;80.60;;;;;;20888442;28;19920;-74
2023/06/14 19:55:11;;;;;;;;;;;22.10;82.70;;;;;;20893914;28;20380;-74
2023/06/14 20:05:11;;;;;;;;;;;21.40;85.40;;;;;;20853009;28;19953;-73
2023/06/14 20:15:12;;;;;;;;;;;21.20;87.30;;;;;;20875956;28;19948;-72
2023/06/14 20:25:13;;;;;;;;;;;21.00;88.40;;;;;;20886424;28;19913;-72
2023/06/14 20:35:14;;;;;;;;;;;20.70;89.50;;;;;;20891048;28;19920;-72
2023/06/14 20:45:15;;;;;;;;;;;20.60;89.20;;;;;;20893836;28;19916;-72
2023/06/14 20:55:17;;;;;;;;;;;20.10;90.60;;;;;;20882202;28;19921;-72
2023/06/14 21:05:18;;;;;;;;;;;19.90;91.50;;;;;;20921577;28;20450;-72
2023/06/14 21:15:18;;;;;;;;;;;19.80;91.60;;;;;;20920027;28;19920;-73
2023/06/14 21:25:19;;;;;;;;;;;19.80;91.70;;;;;;20934273;28;19913;-73
2023/06/14 21:35:20;;;;;;;;;;;19.70;91.30;;;;;;20909429;28;20070;-73
2023/06/14 21:45:21;;;;;;;;;;;19.70;91.00;;;;;;20925046;28;19913;-70
2023/06/14 21:55:27;;;;;;;;;;;19.10;92.90;;;;;;20937210;28;19946;-71
2023/06/14 22:05:28;;;;;;;;;;;19.00;93.60;;;;;;20923596;28;19923;-72
2023/06/14 22:15:28;;;;;;;;;;;18.40;95.60;;;;;;20918009;28;19985;-73
2023/06/14 22:25:30;;;;;;;;;;;18.30;96.70;;;;;;20916544;28;19912;-72
2023/06/14 22:35:31;;;;;;;;;;;18.60;95.90;;;;;;20914193;28;19916;-73
2023/06/14 22:45:32;;;;;;;;;;;18.40;97.10;;;;;;20912922;28;20011;-72
2023/06/14 22:55:32;;;;;;;;;;;17.80;98.60;;;;;;20910984;28;20406;-73
2023/06/14 23:05:33;;;;;;;;;;;17.90;97.50;;;;;;20911772;28;20078;-73
2023/06/14 23:15:34;;;;;;;;;;;17.50;98.50;;;;;;20910714;28;19921;-73
2023/06/14 23:25:35;;;;;;;;;;;17.60;98.60;;;;;;20910152;28;19923;-72
2023/06/14 23:35:35;;;;;;;;;;;17.30;99.30;;;;;;20909580;28;19956;-73
2023/06/14 23:45:36;;;;;;;;;;;17.20;99.90;;;;;;20914307;28;20015;-73
2023/06/14 23:55:37;;;;;;;;;;;16.60;99.90;;;;;;20907813;28;19921;-73
